Time;durP1;ratioP1;P1;durP2;ratioP2;P2;SDS_P1;SDS_P2;PMS_P1;PMS_P2;Temp;Humidity;BMP_temperature;BMP_pressure;BME280_temperature;BME280_humidity;BME280_pressure;Samples;Min_cycle;Max_cycle;Signal;HPM_P1;HPM_P2
2023/12/08 00:00:45;;;;;;;17.10;9.93;;;13.00;57.00;;;;;;5031343;28;20452;-78
2023/12/08 00:03:15;;;;;;;15.40;10.03;;;13.00;57.20;;;;;;5029594;28;20462;-77
2023/12/08 00:05:42;;;;;;;14.63;9.97;;;13.00;57.10;;;;;;5031901;28;20549;-77
2023/12/08 00:08:10;;;;;;;13.93;9.73;;;13.00;57.00;;;;;;5033108;28;20456;-77
2023/12/08 00:10:38;;;;;;;13.30;10.07;;;13.00;57.20;;;;;;5033442;28;20550;-77
2023/12/08 00:13:07;;;;;;;13.97;10.50;;;13.00;57.10;;;;;;5029879;28;20490;-80
2023/12/08 00:15:34;;;;;;;14.77;10.10;;;13.00;57.00;;;;;;5056022;22;20494;-76
2023/12/08 00:18:02;;;;;;;13.10;9.27;;;13.00;57.20;;;;;;5040863;28;20455;-76
2023/12/08 00:20:32;;;;;;;11.33;8.57;;;13.00;57.10;;;;;;5049782;28;20435;-76
2023/12/08 00:22:59;;;;;;;12.77;9.03;;;13.00;57.20;;;;;;5033284;28;20428;-76
2023/12/08 00:25:27;;;;;;;15.43;9.70;;;13.00;57.20;;;;;;5038302;28;20542;-77
2023/12/08 00:27:55;;;;;;;12.17;8.90;;;12.90;57.10;;;;;;5038475;28;20452;-77
2023/12/08 00:30:23;;;;;;;15.33;10.17;;;13.00;57.00;;;;;;5038874;28;20444;-76
2023/12/08 00:32:51;;;;;;;13.87;9.73;;;13.00;57.30;;;;;;5044243;28;20483;-77
2023/12/08 00:35:21;;;;;;;12.33;9.63;;;13.00;57.30;;;;;;5042354;28;20466;-74
2023/12/08 00:37:50;;;;;;;13.63;10.33;;;13.00;57.20;;;;;;5033648;28;20451;-75
2023/12/08 00:40:18;;;;;;;11.53;8.80;;;13.00;57.20;;;;;;5037576;28;20538;-75
2023/12/08 00:42:47;;;;;;;13.23;9.33;;;12.90;57.00;;;;;;5043951;28;20450;-75
2023/12/08 00:45:15;;;;;;;13.20;9.70;;;13.00;57.30;;;;;;5032328;28;20563;-74
2023/12/08 00:47:43;;;;;;;16.40;9.10;;;13.00;57.20;;;;;;5040912;28;20433;-74
2023/12/08 00:50:12;;;;;;;12.03;9.00;;;13.00;57.10;;;;;;5045370;28;20439;-74
2023/12/08 00:52:39;;;;;;;12.57;9.50;;;13.00;57.10;;;;;;5044713;28;20473;-74
2023/12/08 00:55:09;;;;;;;11.90;8.67;;;12.90;57.10;;;;;;5050631;28;20541;-74
2023/12/08 00:57:37;;;;;;;13.70;9.63;;;13.00;57.20;;;;;;5041544;28;20426;-75
2023/12/08 01:00:06;;;;;;;12.77;8.93;;;12.90;57.00;;;;;;5041726;28;20435;-76
2023/12/08 01:02:34;;;;;;;13.93;8.80;;;13.00;57.20;;;;;;5044120;28;20450;-75
2023/12/08 01:05:03;;;;;;;13.33;9.40;;;13.00;57.20;;;;;;5043464;28;20489;-75
2023/12/08 01:07:30;;;;;;;16.27;9.30;;;13.00;57.20;;;;;;5045462;28;20481;-75
2023/12/08 01:09:59;;;;;;;12.40;8.63;;;13.00;57.10;;;;;;5051473;28;20442;-75
2023/12/08 01:12:28;;;;;;;13.20;9.20;;;13.00;57.00;;;;;;5051114;28;20435;-75
2023/12/08 01:14:56;;;;;;;10.73;8.63;;;12.90;57.10;;;;;;5051941;28;20557;-74
2023/12/08 01:17:24;;;;;;;11.13;8.90;;;12.90;57.20;;;;;;5054652;28;20439;-75
2023/12/08 01:19:52;;;;;;;12.53;8.70;;;13.00;57.30;;;;;;5055608;28;20443;-75
2023/12/08 01:22:20;;;;;;;11.47;7.80;;;12.90;57.10;;;;;;5063080;28;20434;-75
2023/12/08 01:24:48;;;;;;;10.77;8.23;;;12.90;57.10;;;;;;5058000;28;20478;-75
2023/12/08 01:27:16;;;;;;;12.90;8.50;;;12.90;57.10;;;;;;5061976;28;20501;-75
2023/12/08 01:29:45;;;;;;;10.47;8.23;;;12.90;57.20;;;;;;5063968;28;20462;-75
2023/12/08 01:32:13;;;;;;;11.83;8.53;;;12.90;57.20;;;;;;5066327;28;20477;-75
2023/12/08 01:34:41;;;;;;;11.63;8.53;;;12.90;57.30;;;;;;5055720;28;20467;-75
2023/12/08 01:37:09;;;;;;;10.60;8.13;;;12.90;57.20;;;;;;5038327;28;20435;-76
2023/12/08 01:39:37;;;;;;;13.30;8.80;;;13.00;57.30;;;;;;5035754;28;20518;-76
2023/12/08 01:42:05;;;;;;;15.80;9.13;;;12.90;57.10;;;;;;5035176;28;20938;-75
2023/12/08 01:44:33;;;;;;;10.23;8.20;;;12.90;57.10;;;;;;5035274;28;20470;-75
2023/12/08 01:47:03;;;;;;;11.33;8.20;;;12.90;57.20;;;;;;5034847;28;20475;-75
2023/12/08 01:49:31;;;;;;;11.10;8.37;;;12.90;56.90;;;;;;5037165;28;20443;-75
2023/12/08 01:51:59;;;;;;;12.00;8.30;;;12.90;57.20;;;;;;5057750;28;20472;-75
2023/12/08 01:54:27;;;;;;;10.30;8.03;;;12.90;57.10;;;;;;5055698;28;20453;-76
2023/12/08 01:56:55;;;;;;;13.50;8.50;;;12.90;57.10;;;;;;5055154;28;20431;-75
2023/12/08 01:59:22;;;;;;;11.37;8.10;;;12.90;57.10;;;;;;5055104;28;20443;-76
2023/12/08 02:01:50;;;;;;;9.80;7.90;;;12.90;57.70;;;;;;5055656;28;20535;-76
2023/12/08 02:04:19;;;;;;;11.07;8.30;;;12.90;57.10;;;;;;5055057;28;20459;-76
2023/12/08 02:06:47;;;;;;;10.30;7.97;;;12.90;57.00;;;;;;5034778;28;20472;-75
2023/12/08 02:09:17;;;;;;;8.30;7.40;;;12.90;57.00;;;;;;5037371;28;20440;-76
2023/12/08 02:11:45;;;;;;;9.13;7.83;;;12.90;57.00;;;;;;5035016;28;20450;-76
2023/12/08 02:14:13;;;;;;;8.73;7.60;;;12.90;57.00;;;;;;5034572;28;20467;-76
2023/12/08 02:16:44;;;;;;;11.00;8.10;;;12.90;57.00;;;;;;5034494;28;20440;-76
2023/12/08 02:19:13;;;;;;;11.20;8.27;;;12.90;57.00;;;;;;5034605;28;20478;-76
2023/12/08 02:21:43;;;;;;;9.77;7.80;;;12.90;57.00;;;;;;5034393;28;20447;-76
2023/12/08 02:24:12;;;;;;;9.93;7.83;;;12.90;57.00;;;;;;5034196;28;20559;-76
2023/12/08 02:26:41;;;;;;;9.53;7.37;;;12.90;57.00;;;;;;5032780;28;20479;-76
2023/12/08 02:29:09;;;;;;;10.90;7.40;;;12.90;56.90;;;;;;5033869;28;20475;-76
2023/12/08 02:31:46;;;;;;;10.57;8.00;;;12.90;57.00;;;;;;5034553;28;20435;-76
2023/12/08 02:34:14;;;;;;;9.57;7.27;;;12.90;56.90;;;;;;5034140;28;20538;-76
2023/12/08 02:36:42;;;;;;;9.70;7.53;;;12.90;57.00;;;;;;5046628;28;20445;-76
2023/12/08 02:39:10;;;;;;;7.57;6.37;;;12.90;57.00;;;;;;5054121;28;20525;-76
2023/12/08 02:41:42;;;;;;;10.13;7.33;;;12.90;57.00;;;;;;5054754;28;20441;-76
2023/12/08 02:44:10;;;;;;;9.60;7.50;;;12.90;57.10;;;;;;5054036;28;20517;-76
2023/12/08 02:46:38;;;;;;;8.67;6.87;;;12.90;57.20;;;;;;5053430;28;20434;-76
2023/12/08 02:49:06;;;;;;;10.83;7.67;;;12.90;57.00;;;;;;5053791;28;20482;-76
2023/12/08 02:51:34;;;;;;;9.70;7.53;;;12.90;57.00;;;;;;5053133;28;20445;-76
2023/12/08 02:54:02;;;;;;;10.27;7.97;;;12.80;56.90;;;;;;5053459;28;20459;-76
2023/12/08 02:56:30;;;;;;;8.23;6.90;;;12.90;57.20;;;;;;5052906;28;20434;-76
2023/12/08 02:58:59;;;;;;;8.90;7.30;;;12.90;57.10;;;;;;5053095;28;20438;-76
2023/12/08 03:01:28;;;;;;;9.63;7.20;;;12.90;57.00;;;;;;5053396;28;20426;-76
2023/12/08 03:03:56;;;;;;;8.23;7.30;;;12.90;57.00;;;;;;5053009;28;20973;-76
2023/12/08 03:06:24;;;;;;;9.80;6.93;;;12.90;57.10;;;;;;5053652;28;20450;-76
2023/12/08 03:08:52;;;;;;;9.47;6.70;;;12.90;57.00;;;;;;5052876;28;21036;-76
2023/12/08 03:11:21;;;;;;;11.83;7.50;;;12.90;57.10;;;;;;5053329;28;20450;-76
2023/12/08 03:13:49;;;;;;;14.63;8.90;;;12.90;57.00;;;;;;5052948;28;20486;-76
2023/12/08 03:16:18;;;;;;;16.80;9.50;;;12.90;57.00;;;;;;5053116;28;20470;-76
2023/12/08 03:18:46;;;;;;;16.40;10.77;;;12.90;57.10;;;;;;5053217;28;20442;-76
2023/12/08 03:21:21;;;;;;;13.97;10.30;;;12.90;57.10;;;;;;5052802;28;20439;-76
2023/12/08 03:23:49;;;;;;;18.27;12.13;;;12.90;57.10;;;;;;5052151;28;20430;-76
2023/12/08 03:26:18;;;;;;;21.00;12.30;;;12.90;57.10;;;;;;5052410;28;20450;-76
2023/12/08 03:28:46;;;;;;;18.30;12.07;;;12.90;57.10;;;;;;5052624;28;20577;-77
2023/12/08 03:31:23;;;;;;;17.40;11.90;;;12.90;57.00;;;;;;5052901;28;20541;-77
2023/12/08 03:33:50;;;;;;;19.27;12.10;;;12.90;57.10;;;;;;5052912;28;20518;-77
2023/12/08 03:36:19;;;;;;;21.50;13.40;;;12.90;57.10;;;;;;5052461;28;20497;-76
2023/12/08 03:38:47;;;;;;;19.43;12.70;;;12.90;57.10;;;;;;5052981;28;20501;-77
2023/12/08 03:41:15;;;;;;;17.43;11.13;;;12.90;57.20;;;;;;5053664;28;20450;-77
2023/12/08 03:43:42;;;;;;;17.30;11.97;;;12.90;57.30;;;;;;5053760;28;20514;-77
2023/12/08 03:46:10;;;;;;;20.43;12.27;;;12.90;57.30;;;;;;5056405;28;20477;-77
2023/12/08 03:48:39;;;;;;;19.13;13.07;;;12.90;57.20;;;;;;5053181;28;20466;-77
2023/12/08 03:51:08;;;;;;;18.77;12.37;;;12.90;57.20;;;;;;5055558;28;20453;-77
2023/12/08 03:53:35;;;;;;;19.37;11.97;;;12.90;57.20;;;;;;5053293;28;20477;-77
2023/12/08 03:56:04;;;;;;;19.67;12.40;;;12.90;57.10;;;;;;5053522;28;20446;-78
2023/12/08 03:58:33;;;;;;;20.07;12.80;;;12.90;57.20;;;;;;5053185;28;20466;-77
2023/12/08 04:01:01;;;;;;;18.10;11.43;;;12.90;57.20;;;;;;5049253;28;20505;-77
2023/12/08 04:03:29;;;;;;;19.80;12.00;;;12.90;57.20;;;;;;5053275;28;20462;-78
2023/12/08 04:05:58;;;;;;;18.33;11.27;;;12.90;57.10;;;;;;5053119;28;20516;-78
2023/12/08 04:08:26;;;;;;;17.90;11.40;;;12.90;57.20;;;;;;5044916;28;20489;-77
2023/12/08 04:10:54;;;;;;;18.30;11.50;;;12.90;57.30;;;;;;5052736;28;20462;-78
2023/12/08 04:13:22;;;;;;;16.20;10.80;;;12.90;57.20;;;;;;5045698;28;20489;-78
2023/12/08 04:15:50;;;;;;;17.37;11.40;;;12.90;57.10;;;;;;5048021;28;20854;-78
2023/12/08 04:18:18;;;;;;;15.80;10.50;;;12.90;57.10;;;;;;5036643;28;20942;-77
2023/12/08 04:20:47;;;;;;;14.87;9.90;;;12.90;57.00;;;;;;5042467;28;20443;-77
2023/12/08 04:23:16;;;;;;;15.87;10.47;;;12.80;57.10;;;;;;5039128;28;20454;-77
2023/12/08 04:25:44;;;;;;;14.60;10.03;;;12.90;57.20;;;;;;5036215;28;20493;-77
2023/12/08 04:28:12;;;;;;;16.43;11.10;;;12.90;57.20;;;;;;5053065;28;20478;-77
2023/12/08 04:30:40;;;;;;;16.40;11.17;;;12.90;57.20;;;;;;5052360;28;20504;-77
2023/12/08 04:33:09;;;;;;;15.73;10.70;;;12.90;57.20;;;;;;5042838;28;20523;-77
2023/12/08 04:35:37;;;;;;;18.10;10.43;;;12.90;57.20;;;;;;5065936;28;20533;-77
2023/12/08 04:38:05;;;;;;;19.40;10.67;;;12.90;57.10;;;;;;5055645;28;20434;-77
2023/12/08 04:40:34;;;;;;;13.33;9.70;;;12.80;57.10;;;;;;5048574;28;20450;-77
2023/12/08 04:43:03;;;;;;;15.13;10.30;;;12.90;57.10;;;;;;5047329;28;20530;-77
2023/12/08 04:45:31;;;;;;;15.03;9.87;;;12.90;57.20;;;;;;5048701;28;20516;-77
2023/12/08 04:47:59;;;;;;;14.57;9.60;;;12.90;57.10;;;;;;5044618;28;20472;-77
2023/12/08 04:50:27;;;;;;;13.80;10.03;;;12.90;57.20;;;;;;5037791;28;20466;-77
2023/12/08 04:52:56;;;;;;;13.33;9.00;;;12.90;57.20;;;;;;5051758;28;20451;-77
2023/12/08 04:55:23;;;;;;;15.40;9.90;;;12.80;57.10;;;;;;5052098;28;20505;-77
2023/12/08 04:57:53;;;;;;;11.73;9.27;;;12.80;57.20;;;;;;5054594;28;20447;-78
2023/12/08 05:00:21;;;;;;;12.60;8.93;;;12.80;57.10;;;;;;5040955;28;20439;-78
2023/12/08 05:02:49;;;;;;;14.20;9.50;;;12.90;57.30;;;;;;5056498;28;20484;-78
2023/12/08 05:05:17;;;;;;;15.27;9.70;;;12.90;57.30;;;;;;5056438;28;20515;-79
2023/12/08 05:07:45;;;;;;;11.67;8.30;;;12.80;57.30;;;;;;5044983;28;20439;-77
2023/12/08 05:10:13;;;;;;;11.53;8.87;;;12.80;57.30;;;;;;5049183;28;20484;-77
2023/12/08 05:12:41;;;;;;;14.30;9.47;;;12.90;57.40;;;;;;5056286;28;20434;-78
2023/12/08 05:15:11;;;;;;;11.43;8.50;;;12.90;57.30;;;;;;5056135;28;20560;-78
2023/12/08 05:17:39;;;;;;;13.97;9.60;;;12.90;57.20;;;;;;5046639;28;20414;-78
2023/12/08 05:20:08;;;;;;;14.63;9.23;;;12.90;57.10;;;;;;5046802;28;20439;-77
2023/12/08 05:22:36;;;;;;;12.10;8.80;;;12.90;57.30;;;;;;5050872;28;20493;-78
2023/12/08 05:25:04;;;;;;;12.10;8.70;;;12.90;57.40;;;;;;5056276;28;20464;-79
2023/12/08 05:27:33;;;;;;;12.50;8.47;;;12.90;57.40;;;;;;5048014;28;20458;-78
2023/12/08 05:30:02;;;;;;;12.10;8.70;;;12.90;57.40;;;;;;5055159;28;20470;-78
2023/12/08 05:32:31;;;;;;;12.17;8.50;;;12.90;57.40;;;;;;5056073;28;20524;-78
2023/12/08 05:35:00;;;;;;;12.77;8.33;;;12.90;57.30;;;;;;5048567;28;20471;-78
2023/12/08 05:37:29;;;;;;;10.37;7.83;;;12.90;57.40;;;;;;5055948;28;20450;-78
2023/12/08 05:39:57;;;;;;;11.17;8.03;;;12.90;57.50;;;;;;5036522;28;20539;-78
2023/12/08 05:42:25;;;;;;;11.07;7.90;;;12.80;57.40;;;;;;5035579;28;20478;-78
2023/12/08 05:44:53;;;;;;;10.47;7.53;;;12.80;57.40;;;;;;5038043;28;20550;-77
2023/12/08 05:47:21;;;;;;;11.27;8.47;;;12.80;57.50;;;;;;5043219;28;20475;-77
2023/12/08 05:49:51;;;;;;;11.00;7.87;;;12.90;57.60;;;;;;5044384;28;20540;-78
2023/12/08 05:52:19;;;;;;;11.07;8.00;;;12.80;57.50;;;;;;5040711;28;20519;-77
2023/12/08 05:54:47;;;;;;;11.67;7.80;;;12.80;57.50;;;;;;5053103;28;20498;-77
2023/12/08 05:57:15;;;;;;;11.20;8.10;;;12.80;57.50;;;;;;5046291;28;20474;-76
2023/12/08 05:59:43;;;;;;;10.63;8.10;;;12.80;57.40;;;;;;5054319;28;20439;-77
2023/12/08 06:02:11;;;;;;;11.40;8.10;;;12.80;57.40;;;;;;5053330;28;20441;-77
2023/12/08 06:04:39;;;;;;;11.73;8.00;;;12.80;57.40;;;;;;5039924;28;20570;-77
2023/12/08 06:07:08;;;;;;;9.60;7.50;;;12.80;57.60;;;;;;5042607;28;20531;-77
2023/12/08 06:09:36;;;;;;;11.00;7.50;;;12.80;57.40;;;;;;5044488;28;20566;-77
2023/12/08 06:12:05;;;;;;;11.30;8.27;;;12.80;57.60;;;;;;5054161;28;20542;-75
2023/12/08 06:14:33;;;;;;;14.27;7.03;;;12.80;57.60;;;;;;5054779;28;20461;-75
2023/12/08 06:17:01;;;;;;;10.17;7.80;;;12.80;57.50;;;;;;5052605;28;20449;-76
2023/12/08 06:19:29;;;;;;;9.53;7.80;;;12.80;57.60;;;;;;5054191;28;20475;-75
2023/12/08 06:21:57;;;;;;;9.10;6.90;;;12.80;57.50;;;;;;5054166;28;20439;-75
2023/12/08 06:24:27;;;;;;;10.20;7.57;;;12.80;57.60;;;;;;5041134;28;20494;-75
2023/12/08 06:26:54;;;;;;;10.27;7.73;;;12.80;57.60;;;;;;5051051;28;20445;-75
2023/12/08 06:29:22;;;;;;;8.50;6.80;;;12.80;57.60;;;;;;5043726;28;20472;-76
2023/12/08 06:31:50;;;;;;;8.70;7.17;;;12.80;57.60;;;;;;5044947;28;20446;-75
2023/12/08 06:34:18;;;;;;;8.83;7.23;;;12.80;57.50;;;;;;5045522;28;20463;-76
2023/12/08 06:36:46;;;;;;;9.90;6.53;;;12.80;57.70;;;;;;5053578;28;20482;-74
2023/12/08 06:39:15;;;;;;;10.20;7.10;;;12.80;57.60;;;;;;5039239;28;20455;-75
2023/12/08 06:41:45;;;;;;;9.30;6.90;;;12.80;57.70;;;;;;5052886;28;20435;-75
2023/12/08 06:44:13;;;;;;;8.10;6.50;;;12.80;57.60;;;;;;5052467;28;20458;-75
2023/12/08 06:46:40;;;;;;;9.63;7.67;;;12.80;57.70;;;;;;5040097;28;20534;-75
2023/12/08 06:49:08;;;;;;;8.27;6.87;;;12.80;57.60;;;;;;5046064;28;20467;-75
2023/12/08 06:51:37;;;;;;;9.37;6.67;;;12.80;57.60;;;;;;5052927;28;20434;-75
2023/12/08 06:54:05;;;;;;;9.50;7.07;;;12.80;57.60;;;;;;5036997;28;20454;-75
2023/12/08 06:56:33;;;;;;;10.47;7.37;;;12.80;57.60;;;;;;5040355;28;20437;-75
2023/12/08 06:59:02;;;;;;;9.83;6.90;;;12.80;57.70;;;;;;5033031;28;20458;-76
2023/12/08 07:01:30;;;;;;;8.20;6.90;;;12.80;57.60;;;;;;5044818;28;20477;-77
2023/12/08 07:03:58;;;;;;;8.00;6.50;;;12.80;57.60;;;;;;5052959;28;20550;-76
2023/12/08 07:06:26;;;;;;;7.87;6.87;;;12.80;57.60;;;;;;5053170;28;20454;-75
2023/12/08 07:08:55;;;;;;;7.40;6.40;;;12.80;57.60;;;;;;5052778;28;20439;-75
2023/12/08 07:11:23;;;;;;;8.47;6.50;;;12.80;57.50;;;;;;5053425;28;20523;-76
2023/12/08 07:13:51;;;;;;;9.13;6.93;;;12.80;57.50;;;;;;5051631;28;20478;-74
2023/12/08 07:16:20;;;;;;;8.10;6.30;;;12.80;57.50;;;;;;5043533;28;20470;-75
2023/12/08 07:18:49;;;;;;;7.60;6.10;;;12.80;57.60;;;;;;5045735;28;20470;-75
2023/12/08 07:21:17;;;;;;;8.53;6.70;;;12.80;57.50;;;;;;5042755;28;20500;-75
2023/12/08 07:23:45;;;;;;;10.53;7.10;;;12.80;57.40;;;;;;5043455;28;20430;-76
2023/12/08 07:26:13;;;;;;;8.50;6.80;;;12.80;57.50;;;;;;5040766;28;20514;-75
2023/12/08 07:28:42;;;;;;;7.40;6.20;;;12.80;57.40;;;;;;5037699;28;20455;-75
2023/12/08 07:31:12;;;;;;;8.63;6.70;;;12.80;57.50;;;;;;5032533;28;20559;-74
2023/12/08 07:33:41;;;;;;;9.93;6.97;;;12.80;57.30;;;;;;5036122;28;20473;-74
2023/12/08 07:36:10;;;;;;;8.80;6.63;;;12.80;57.40;;;;;;5036402;28;20451;-75
2023/12/08 07:38:39;;;;;;;6.97;6.07;;;12.70;57.30;;;;;;5033709;28;20443;-75
2023/12/08 07:41:07;;;;;;;9.87;6.93;;;12.80;58.10;;;;;;5033282;28;20464;-75
2023/12/08 07:43:36;;;;;;;8.00;6.30;;;12.80;57.30;;;;;;5032720;28;20443;-74
2023/12/08 07:46:04;;;;;;;7.30;6.07;;;12.80;57.30;;;;;;5032761;28;20463;-74
2023/12/08 07:48:32;;;;;;;9.20;6.80;;;12.80;57.50;;;;;;5033870;28;20509;-76
2023/12/08 07:51:02;;;;;;;8.20;6.37;;;12.80;57.40;;;;;;5049039;28;20492;-75
2023/12/08 07:53:30;;;;;;;9.73;6.47;;;12.80;57.40;;;;;;5049444;28;20446;-74
2023/12/08 07:55:58;;;;;;;8.33;6.43;;;12.70;57.20;;;;;;5059035;28;20516;-74
2023/12/08 07:58:27;;;;;;;8.90;6.30;;;12.80;58.00;;;;;;5057515;28;20438;-76
2023/12/08 08:00:55;;;;;;;7.67;6.50;;;12.80;57.30;;;;;;5054703;28;20466;-76
2023/12/08 08:03:23;;;;;;;9.50;6.60;;;12.80;57.50;;;;;;5053352;28;20438;-77
2023/12/08 08:05:52;;;;;;;9.87;7.30;;;12.80;57.40;;;;;;5046787;28;20455;-76
2023/12/08 08:08:21;;;;;;;9.67;6.60;;;12.80;57.60;;;;;;5050559;28;20449;-76
2023/12/08 08:10:49;;;;;;;7.97;6.10;;;12.80;57.60;;;;;;5043800;28;20466;-76
2023/12/08 08:13:17;;;;;;;12.40;6.77;;;12.80;57.50;;;;;;5053171;28;20470;-76
2023/12/08 08:15:44;;;;;;;9.63;7.57;;;12.80;57.70;;;;;;5042422;28;20984;-76
2023/12/08 08:18:13;;;;;;;8.23;6.80;;;12.80;57.70;;;;;;5041377;28;20427;-75
2023/12/08 08:20:41;;;;;;;8.63;6.17;;;12.80;57.70;;;;;;5052026;28;21003;-76
2023/12/08 08:23:09;;;;;;;8.17;6.30;;;12.80;57.90;;;;;;5051958;28;20434;-76
2023/12/08 08:25:39;;;;;;;7.90;6.27;;;12.80;57.80;;;;;;5054116;28;20525;-76
2023/12/08 08:28:08;;;;;;;9.07;6.30;;;12.90;57.90;;;;;;5054678;28;20482;-76
2023/12/08 08:30:36;;;;;;;10.20;6.83;;;12.90;57.90;;;;;;5053469;28;20479;-75
2023/12/08 08:33:03;;;;;;;9.60;6.23;;;12.90;58.10;;;;;;5055720;28;20446;-76
2023/12/08 08:35:32;;;;;;;8.90;6.93;;;12.90;58.20;;;;;;5058633;28;20481;-76
2023/12/08 08:37:59;;;;;;;10.30;6.40;;;12.90;58.00;;;;;;5073095;28;20437;-75
2023/12/08 08:40:27;;;;;;;9.83;6.90;;;12.90;58.00;;;;;;5055291;28;20501;-75
2023/12/08 08:42:56;;;;;;;9.60;7.03;;;12.90;58.10;;;;;;5058496;28;20431;-75
2023/12/08 08:45:24;;;;;;;8.67;6.37;;;12.90;58.20;;;;;;5058829;28;20457;-74
2023/12/08 08:47:53;;;;;;;8.50;6.40;;;12.90;58.10;;;;;;5077594;28;20473;-75
2023/12/08 08:50:22;;;;;;;7.60;6.20;;;12.90;58.10;;;;;;5077307;28;20465;-75
2023/12/08 08:52:50;;;;;;;9.30;6.00;;;12.90;58.30;;;;;;5077454;28;20434;-75
2023/12/08 08:55:18;;;;;;;8.43;6.47;;;12.90;58.20;;;;;;5076629;28;20511;-76
2023/12/08 08:57:47;;;;;;;11.00;6.50;;;12.90;58.30;;;;;;5076721;28;20467;-75
2023/12/08 09:00:18;;;;;;;10.30;6.70;;;12.90;58.30;;;;;;5067497;28;21014;-75
2023/12/08 09:02:51;;;;;;;12.60;6.63;;;12.90;58.20;;;;;;5037783;28;20538;-75
2023/12/08 09:05:20;;;;;;;10.60;7.30;;;12.90;58.30;;;;;;5056821;28;21003;-75
2023/12/08 09:07:48;;;;;;;9.93;7.20;;;12.90;58.40;;;;;;5056572;28;20453;-75
2023/12/08 09:10:16;;;;;;;12.93;7.67;;;12.90;58.20;;;;;;5056588;28;20493;-75
2023/12/08 09:12:45;;;;;;;13.00;7.70;;;12.90;58.20;;;;;;5050826;28;20538;-76
2023/12/08 09:15:13;;;;;;;11.07;7.63;;;12.90;58.30;;;;;;5038931;28;20508;-75
2023/12/08 09:17:43;;;;;;;14.90;8.53;;;12.90;58.40;;;;;;5076258;28;20823;-77
2023/12/08 09:20:14;;;;;;;10.47;7.60;;;12.90;58.40;;;;;;5077233;28;20446;-76
2023/12/08 09:22:42;;;;;;;12.97;8.60;;;13.00;58.40;;;;;;5076802;28;20442;-77
2023/12/08 09:25:10;;;;;;;11.87;8.20;;;13.00;58.40;;;;;;5076872;28;20492;-76
2023/12/08 09:27:38;;;;;;;13.33;8.10;;;13.00;58.40;;;;;;5077145;28;20446;-76
2023/12/08 09:30:07;;;;;;;10.80;7.10;;;13.00;58.50;;;;;;5076451;28;20529;-76
2023/12/08 09:32:35;;;;;;;18.13;8.57;;;13.00;58.50;;;;;;5054191;28;20438;-76
2023/12/08 09:35:06;;;;;;;14.50;8.53;;;13.00;58.50;;;;;;5057009;28;20557;-76
2023/12/08 09:37:34;;;;;;;10.37;7.70;;;13.00;58.50;;;;;;5056750;28;20438;-76
2023/12/08 09:40:08;;;;;;;15.33;8.07;;;13.00;58.50;;;;;;5055349;28;20459;-76
2023/12/08 09:42:37;;;;;;;14.30;8.80;;;13.00;58.50;;;;;;5054892;28;20431;-75
2023/12/08 09:45:06;;;;;;;11.27;8.00;;;13.00;58.60;;;;;;5055427;28;20450;-76
2023/12/08 09:47:35;;;;;;;12.20;7.93;;;13.10;58.60;;;;;;5070849;28;20443;-77
2023/12/08 09:50:05;;;;;;;13.20;7.90;;;13.10;58.60;;;;;;5056708;28;20451;-75
2023/12/08 09:52:34;;;;;;;12.87;8.27;;;13.10;58.40;;;;;;5056490;28;20482;-76
2023/12/08 09:55:01;;;;;;;11.60;8.30;;;13.10;58.60;;;;;;5055596;28;20462;-75
2023/12/08 09:57:30;;;;;;;14.20;8.00;;;13.10;58.60;;;;;;5055803;28;20439;-76
2023/12/08 09:59:59;;;;;;;12.60;8.00;;;13.10;58.60;;;;;;5056358;28;20520;-76
2023/12/08 10:02:28;;;;;;;12.60;7.63;;;13.10;58.40;;;;;;5046567;28;20424;-76
2023/12/08 10:04:55;;;;;;;11.43;7.27;;;13.10;59.20;;;;;;5034650;28;20468;-77
2023/12/08 10:07:25;;;;;;;11.57;8.10;;;13.10;58.50;;;;;;5047995;28;20431;-77
2023/12/08 10:09:53;;;;;;;10.83;7.60;;;13.10;58.50;;;;;;5054195;28;20435;-77
2023/12/08 10:12:22;;;;;;;13.43;7.83;;;13.10;58.60;;;;;;5053800;28;20485;-76
2023/12/08 10:14:51;;;;;;;10.20;7.90;;;13.10;58.60;;;;;;5036496;28;20566;-74
2023/12/08 10:17:20;;;;;;;12.70;7.77;;;13.10;58.70;;;;;;5034215;28;20467;-75
2023/12/08 10:19:48;;;;;;;12.30;7.90;;;13.10;58.60;;;;;;5039631;28;20465;-76
2023/12/08 10:22:16;;;;;;;11.23;7.60;;;13.10;58.70;;;;;;5056735;28;20434;-76
2023/12/08 10:24:45;;;;;;;10.80;8.10;;;13.10;58.60;;;;;;5052830;28;20973;-75
2023/12/08 10:27:13;;;;;;;11.97;7.70;;;13.10;58.80;;;;;;5053509;28;20443;-75
2023/12/08 10:29:41;;;;;;;14.13;7.00;;;13.10;58.60;;;;;;5053449;28;20474;-75
2023/12/08 10:32:09;;;;;;;10.10;7.00;;;13.10;58.80;;;;;;5053441;28;20471;-74
2023/12/08 10:34:39;;;;;;;12.07;7.97;;;13.10;58.70;;;;;;5053132;28;20534;-75
2023/12/08 10:37:08;;;;;;;18.00;8.27;;;13.10;58.70;;;;;;5053194;28;20484;-75
2023/12/08 10:39:36;;;;;;;11.80;8.00;;;13.10;58.70;;;;;;5042448;28;20467;-75
2023/12/08 10:42:06;;;;;;;13.90;8.20;;;13.10;58.70;;;;;;5049061;28;20438;-76
2023/12/08 10:44:35;;;;;;;11.93;7.53;;;13.10;58.70;;;;;;5052818;28;20459;-76
2023/12/08 10:47:03;;;;;;;10.77;7.37;;;13.10;58.70;;;;;;5053420;28;20525;-75
2023/12/08 10:49:31;;;;;;;16.27;7.60;;;13.20;58.80;;;;;;5053127;28;20446;-76
2023/12/08 10:52:00;;;;;;;12.40;8.23;;;13.10;58.70;;;;;;5053067;28;21019;-76
2023/12/08 10:54:28;;;;;;;9.70;7.40;;;13.20;58.80;;;;;;5052197;28;20500;-76
2023/12/08 10:56:56;;;;;;;9.80;7.47;;;13.20;58.80;;;;;;5053292;28;20477;-76
2023/12/08 10:59:26;;;;;;;10.60;7.60;;;13.20;58.80;;;;;;5052439;28;20446;-76
2023/12/08 11:01:54;;;;;;;10.97;7.60;;;13.20;58.80;;;;;;5052666;28;20534;-76
2023/12/08 11:04:22;;;;;;;10.87;7.57;;;13.20;58.70;;;;;;5052796;28;20462;-76
2023/12/08 11:06:56;;;;;;;12.37;7.80;;;13.20;58.80;;;;;;5053412;28;20446;-76
2023/12/08 11:09:24;;;;;;;11.07;7.70;;;13.20;58.80;;;;;;5061819;28;20453;-75
2023/12/08 11:11:54;;;;;;;9.90;7.20;;;13.20;58.80;;;;;;5066876;28;20481;-76
2023/12/08 11:14:28;;;;;;;10.50;7.03;;;13.20;58.70;;;;;;5076207;28;20446;-76
2023/12/08 11:16:57;;;;;;;10.17;7.23;;;13.30;58.90;;;;;;5043352;28;20445;-75
2023/12/08 11:19:26;;;;;;;10.40;7.20;;;13.30;58.90;;;;;;5043481;28;20453;-76
2023/12/08 11:21:57;;;;;;;17.97;7.60;;;13.30;58.70;;;;;;5044253;28;20500;-76
2023/12/08 11:24:25;;;;;;;11.03;8.20;;;13.30;58.80;;;;;;5042731;28;20562;-75
2023/12/08 11:26:54;;;;;;;10.10;6.93;;;13.30;59.00;;;;;;5049383;28;20496;-76
2023/12/08 11:29:25;;;;;;;9.47;7.13;;;13.30;58.80;;;;;;5046842;28;20443;-76
2023/12/08 11:31:56;;;;;;;9.57;7.43;;;13.40;59.00;;;;;;5046396;28;21154;-76
2023/12/08 11:34:25;;;;;;;12.07;7.20;;;13.40;58.90;;;;;;5046177;28;20573;-76
2023/12/08 11:36:53;;;;;;;11.47;7.63;;;13.40;58.90;;;;;;5041218;28;20467;-76
2023/12/08 11:39:42;;;;;;;11.90;6.87;;;13.40;58.80;;;;;;5049905;28;20523;-76
2023/12/08 11:42:10;;;;;;;8.50;6.50;;;13.40;59.00;;;;;;5050375;28;20481;-77
2023/12/08 11:44:39;;;;;;;9.30;6.90;;;13.40;58.90;;;;;;5054757;28;20459;-77
2023/12/08 11:47:09;;;;;;;10.07;7.13;;;13.40;59.00;;;;;;5048868;28;20427;-77
2023/12/08 11:49:37;;;;;;;10.87;7.90;;;13.40;59.60;;;;;;5048037;28;20522;-77
2023/12/08 11:52:07;;;;;;;7.63;6.57;;;13.40;59.00;;;;;;5045207;28;20478;-75
2023/12/08 11:54:51;;;;;;;10.70;7.40;;;13.40;58.90;;;;;;5041577;28;20472;-75
2023/12/08 11:57:36;;;;;;;12.00;8.57;;;13.40;58.90;;;;;;5038101;28;20485;-76
2023/12/08 12:00:10;;;;;;;12.37;7.00;;;13.40;59.00;;;;;;5034575;28;20463;-76
2023/12/08 12:02:42;;;;;;;10.90;7.70;;;13.50;59.00;;;;;;5040737;28;20436;-77
2023/12/08 12:05:11;;;;;;;11.50;7.40;;;13.40;58.90;;;;;;5043529;28;20459;-76
2023/12/08 12:07:39;;;;;;;10.50;7.57;;;13.50;58.90;;;;;;5038965;28;20450;-77
2023/12/08 12:10:10;;;;;;;11.87;7.77;;;13.40;58.90;;;;;;5042364;28;20440;-77
2023/12/08 12:12:40;;;;;;;8.83;6.97;;;13.50;59.00;;;;;;5049653;28;20532;-76
2023/12/08 12:15:10;;;;;;;12.00;7.60;;;13.50;59.00;;;;;;5071065;22;20513;-78
2023/12/08 12:17:39;;;;;;;9.97;6.80;;;13.50;59.00;;;;;;5049638;28;20451;-78
2023/12/08 12:20:09;;;;;;;10.70;7.00;;;13.50;59.00;;;;;;5046135;28;20439;-78
2023/12/08 12:22:39;;;;;;;10.20;7.13;;;13.50;59.10;;;;;;5056224;28;20533;-77
2023/12/08 12:25:08;;;;;;;9.57;6.60;;;13.50;58.90;;;;;;5060993;28;20493;-77
2023/12/08 12:27:39;;;;;;;11.97;7.10;;;13.50;58.90;;;;;;5047836;28;20446;-78
2023/12/08 12:30:11;;;;;;;11.80;7.10;;;13.50;58.90;;;;;;5052509;28;20455;-78
2023/12/08 12:32:39;;;;;;;11.47;7.80;;;13.50;58.90;;;;;;5045700;28;20481;-78
2023/12/08 12:35:10;;;;;;;9.60;7.47;;;13.50;59.10;;;;;;5046415;28;20538;-78
2023/12/08 12:37:39;;;;;;;10.40;7.57;;;13.50;58.90;;;;;;5050095;28;20446;-78
2023/12/08 12:40:08;;;;;;;10.63;7.57;;;13.50;58.90;;;;;;5046473;28;20932;-76
2023/12/08 12:42:41;;;;;;;11.27;7.33;;;13.50;58.90;;;;;;5050859;28;20438;-79
2023/12/08 12:45:10;;;;;;;11.03;7.37;;;13.60;59.10;;;;;;5046583;28;20455;-78